Terminal Aerodrome Forecast
Issued by NWS El Paso, TX

Home | Current Version | Previous Version | Text Only | Print | Product List | Glossary On
Versions: 1 2 3 4 5 6 7 8 9 10 11 12
199
FTUS44 KEPZ 242320
TAFELP
TAF
KELP 242320Z 2500/2524 27011KT P6SM SCT080
     FM250700 01010KT P6SM SCT080 BKN250
     FM251600 04012G20KT P6SM SCT070 BKN150 BKN250
     FM252100 05016G26KT P6SM BKN060 BKN150=

USA.gov is the U.S. government's official web portal to all federal, state and local government web resources and services.